Time;durP1;ratioP1;P1;durP2;ratioP2;P2;SDS_P1;SDS_P2;PMS_P1;PMS_P2;Temp;Humidity;BMP_temperature;BMP_pressure;BME280_temperature;BME280_humidity;BME280_pressure;Samples;Min_cycle;Max_cycle;Signal;HPM_P1;HPM_P2
2021/11/12 00:13:17;;;;;;;57.08;24.10;;;;;;;9.95;96.47;102300.81;5027336;28;20441;-74
2021/11/12 00:15:49;;;;;;;63.13;24.38;;;;;;;9.94;96.38;102312.19;5031656;28;20094;-72
2021/11/12 00:18:16;;;;;;;66.82;25.13;;;;;;;9.95;96.19;102310.44;5028497;28;20108;-74
2021/11/12 00:20:42;;;;;;;63.50;25.27;;;;;;;9.95;95.53;102302.56;5019362;28;20029;-73
2021/11/12 00:23:08;;;;;;;70.70;24.75;;;;;;;9.96;95.40;102301.75;5018771;28;20030;-74
2021/11/12 00:25:33;;;;;;;78.25;26.80;;;;;;;9.91;94.48;102291.00;5033146;28;20057;-73
2021/11/12 00:27:59;;;;;;;72.07;26.08;;;;;;;9.91;94.84;102282.22;5030925;28;20033;-74
2021/11/12 00:30:51;;;;;;;68.68;25.08;;;;;;;9.91;94.50;102287.50;5027575;28;20116;-74
2021/11/12 00:36:39;;;;;;;62.75;25.15;;;;;;;9.89;93.92;102281.25;5027412;28;20500;-74
2021/11/12 00:41:39;;;;;;;52.30;21.17;;;;;;;9.86;93.70;102265.34;5028149;28;20079;-73
2021/11/12 00:44:22;;;;;;;51.55;20.75;;;;;;;9.86;93.14;102261.00;5020947;28;20124;-74
2021/11/12 00:46:54;;;;;;;57.40;20.42;;;;;;;9.87;93.11;102264.53;5024937;28;20033;-74
2021/11/12 00:49:27;;;;;;;47.38;18.63;;;;;;;9.85;92.81;102255.66;5013701;28;20040;-74
2021/11/12 00:51:56;;;;;;;52.45;19.52;;;;;;;9.79;92.64;102254.59;5035244;28;20021;-74
2021/11/12 00:54:21;;;;;;;42.15;18.30;;;;;;;9.82;92.47;102252.91;5023915;28;20044;-74
2021/11/12 00:56:49;;;;;;;36.75;17.48;;;;;;;9.81;92.41;102256.38;5032897;28;20396;-74
2021/11/12 00:59:15;;;;;;;32.45;16.40;;;;;;;9.80;91.39;102250.22;5017907;28;20450;-73
2021/11/12 01:01:41;;;;;;;32.58;16.88;;;;;;;9.79;91.42;102254.59;5027871;28;20029;-73
2021/11/12 01:04:10;;;;;;;29.65;15.10;;;;;;;9.79;90.76;102257.22;5035084;28;20158;-73
2021/11/12 01:06:37;;;;;;;34.15;16.38;;;;;;;9.84;89.80;102251.25;5035258;28;20401;-73
2021/11/12 01:09:08;;;;;;;30.00;16.13;;;;;;;9.79;90.00;102244.09;5016117;28;20022;-75
2021/11/12 01:11:34;;;;;;;32.08;15.30;;;;;;;9.80;90.28;102244.97;5033982;28;20115;-73
2021/11/12 01:14:00;;;;;;;29.75;15.80;;;;;;;9.76;90.31;102243.03;5026791;28;20493;-74
2021/11/12 01:16:26;;;;;;;35.63;16.27;;;;;;;9.74;90.35;102240.34;5028936;28;20379;-74
2021/11/12 01:18:52;;;;;;;30.95;15.55;;;;;;;9.75;90.65;102236.91;5032690;28;20033;-74
2021/11/12 01:21:19;;;;;;;31.83;16.73;;;;;;;9.74;90.49;102228.91;5021860;28;20116;-74
2021/11/12 01:23:49;;;;;;;32.65;15.07;;;;;;;9.73;90.92;102235.03;5024099;28;20072;-74
2021/11/12 01:26:15;;;;;;;27.63;14.93;;;;;;;9.73;90.57;102235.91;5023509;28;20132;-74
2021/11/12 01:28:42;;;;;;;29.55;15.82;;;;;;;9.71;90.80;102228.81;5019599;28;20104;-74
2021/11/12 01:31:07;;;;;;;28.27;15.32;;;;;;;9.69;90.93;102228.75;5026320;28;20131;-74
2021/11/12 01:33:34;;;;;;;35.40;17.02;;;;;;;9.69;91.37;102233.13;5030638;28;20137;-73
2021/11/12 01:36:09;;;;;;;34.40;15.63;;;;;;;9.68;91.01;102223.41;5025939;28;20053;-74
2021/11/12 01:38:35;;;;;;;36.03;17.73;;;;;;;9.65;91.76;102223.31;5017369;28;20034;-73
2021/11/12 01:41:00;;;;;;;37.83;18.38;;;;;;;9.64;91.96;102222.38;5035215;28;20025;-74
2021/11/12 01:43:28;;;;;;;34.03;17.73;;;;;;;9.62;92.06;102229.31;5021510;28;20466;-74
2021/11/12 01:51:22;;;;;;;41.63;20.00;;;;;;;9.59;93.80;102234.41;5027985;28;20042;-73
2021/11/12 02:01:30;;;;;;;46.00;21.60;;;;;;;9.55;94.30;102216.72;5024293;28;20076;-75
2021/11/12 02:03:55;;;;;;;44.28;22.00;;;;;;;9.53;94.21;102221.91;5030852;28;20034;-74
2021/11/12 02:06:21;;;;;;;39.78;20.85;;;;;;;9.52;94.17;102219.22;5016952;28;20025;-74
2021/11/12 02:08:49;;;;;;;39.03;21.35;;;;;;;9.51;93.76;102220.97;5028882;28;20028;-74
2021/11/12 02:11:16;;;;;;;40.38;20.42;;;;;;;9.51;93.92;102209.53;5025853;28;20026;-73
2021/11/12 02:13:44;;;;;;;36.63;20.80;;;;;;;9.52;93.87;102208.72;5032438;28;20116;-74
2021/11/12 02:16:13;;;;;;;39.95;19.65;;;;;;;9.51;93.81;102205.22;5032340;28;20148;-74
2021/11/12 02:18:41;;;;;;;39.33;20.23;;;;;;;9.52;93.88;102200.84;5021097;28;20065;-72
2021/11/12 02:23:36;;;;;;;33.35;19.95;;;;;;;9.49;93.89;102196.34;5029297;28;20064;-72
2021/11/12 02:26:03;;;;;;;38.00;20.17;;;;;;;9.50;93.77;102197.25;5028566;28;20450;-74
2021/11/12 02:28:29;;;;;;;40.40;20.90;;;;;;;9.50;94.23;102197.25;5015504;28;20033;-73
2021/11/12 02:30:55;;;;;;;36.22;20.98;;;;;;;9.49;93.89;102195.47;5028588;28;20041;-74
2021/11/12 02:33:23;;;;;;;44.10;21.00;;;;;;;9.48;93.62;102185.78;5021453;28;20091;-74
2021/11/12 02:36:07;;;;;;;41.05;20.77;;;;;;;9.47;94.12;102177.00;5021382;28;20034;-74
2021/11/12 02:38:42;;;;;;;45.50;21.15;;;;;;;9.46;94.01;102164.69;5020447;28;20045;-74
2021/11/12 02:41:07;;;;;;;41.83;19.60;;;;;;;9.45;94.62;102163.81;5035278;28;20025;-74
2021/11/12 02:43:34;;;;;;;36.28;20.48;;;;;;;9.43;94.76;102168.09;5030036;28;20048;-73
2021/11/12 02:46:02;;;;;;;37.53;20.25;;;;;;;9.43;94.75;102175.97;5030811;28;20025;-75
2021/11/12 02:48:29;;;;;;;41.08;20.95;;;;;;;9.42;95.11;102174.16;5031885;28;20469;-74
2021/11/12 02:50:55;;;;;;;33.90;19.60;;;;;;;9.43;94.91;102168.09;5034193;28;20055;-73
2021/11/12 02:53:21;;;;;;;41.20;21.40;;;;;;;9.42;95.22;102157.53;5032562;28;20041;-74
2021/11/12 02:55:46;;;;;;;40.35;20.60;;;;;;;9.39;95.66;102147.78;5031229;28;20030;-73
2021/11/12 02:58:13;;;;;;;45.30;19.90;;;;;;;9.37;95.32;102149.47;5023536;28;20030;-73
2021/11/12 03:00:40;;;;;;;38.15;19.05;;;;;;;9.36;95.38;102137.16;5019671;28;20034;-73
2021/11/12 03:03:07;;;;;;;38.15;19.17;;;;;;;9.37;95.89;102143.28;5032690;28;20022;-73
2021/11/12 03:05:33;;;;;;;34.63;19.17;;;;;;;9.34;96.06;102144.03;5032953;28;20037;-74
2021/11/12 03:08:00;;;;;;;40.63;19.70;;;;;;;9.32;96.23;102140.47;5028589;28;20041;-73
2021/11/12 03:10:25;;;;;;;43.88;20.15;;;;;;;9.32;95.84;102144.81;5020133;28;20137;-73
2021/11/12 03:12:52;;;;;;;33.10;18.63;;;;;;;9.32;95.80;102135.22;5030520;28;20101;-73
2021/11/12 03:15:18;;;;;;;35.30;19.70;;;;;;;9.30;95.89;102126.38;5029160;28;20168;-72
2021/11/12 03:17:47;;;;;;;34.88;19.30;;;;;;;9.31;95.42;102115.03;5017368;28;20025;-74
2021/11/12 03:20:14;;;;;;;36.83;19.05;;;;;;;9.28;95.68;102117.53;5016044;28;20030;-73
2021/11/12 03:22:46;;;;;;;43.30;19.40;;;;;;;9.26;95.90;102114.84;5030011;28;20048;-73
2021/11/12 03:25:23;;;;;;;42.35;19.65;;;;;;;9.25;95.13;102110.41;5019833;28;20048;-73
2021/11/12 04:06:29;;;;;;;32.83;17.17;;;;;;;9.00;94.79;102031.44;4994581;28;20582;-73
2021/11/12 04:17:22;;;;;;;33.17;19.25;;;;;;;8.90;93.68;102017.03;5018840;28;20052;-73
2021/11/12 05:09:40;;;;;;;38.90;18.83;;;;;;;8.50;93.62;101981.19;5014510;28;20029;-73
2021/11/12 05:46:37;;;;;;;52.45;28.45;;;;;;;7.37;98.78;101983.91;5025474;28;20042;-74
2021/11/12 05:57:16;;;;;;;63.95;31.40;;;;;;;7.16;99.28;101932.34;5033854;28;21171;-74
2021/11/12 05:59:43;;;;;;;53.38;28.80;;;;;;;7.14;99.41;101913.03;5031574;28;20056;-74
2021/11/12 06:02:09;;;;;;;52.72;29.88;;;;;;;7.07;99.75;101906.59;5031421;28;20026;-74
2021/11/12 06:04:34;;;;;;;59.95;28.95;;;;;;;7.02;99.76;101920.28;5033132;28;20066;-73
2021/11/12 06:06:59;;;;;;;59.10;29.63;;;;;;;6.97;100.00;101933.13;5026926;28;20041;-74
2021/11/12 06:09:25;;;;;;;51.60;27.40;;;;;;;6.92;100.00;101930.31;5024602;28;20539;-73
2021/11/12 06:11:53;;;;;;;52.55;29.77;;;;;;;6.88;100.00;101925.75;5047625;28;20032;-74
2021/11/12 06:14:19;;;;;;;55.65;30.40;;;;;;;6.86;100.00;101911.69;5034899;28;20037;-72
2021/11/12 06:16:44;;;;;;;61.08;31.02;;;;;;;6.82;100.00;101909.72;5023811;28;20025;-73
2021/11/12 06:19:09;;;;;;;62.55;31.10;;;;;;;6.81;100.00;101918.41;5028693;28;20477;-74
2021/11/12 06:21:35;;;;;;;62.38;30.60;;;;;;;6.77;100.00;101905.09;5034177;28;20021;-74
2021/11/12 06:24:01;;;;;;;60.17;32.10;;;;;;;6.73;100.00;101898.84;5033057;28;20036;-73
2021/11/12 06:26:26;;;;;;;60.13;30.80;;;;;;;6.70;100.00;101898.66;5028756;28;20057;-73
2021/11/12 06:28:52;;;;;;;67.72;32.78;;;;;;;6.67;100.00;101901.13;5036232;28;20080;-74
2021/11/12 06:31:19;;;;;;;69.07;35.47;;;;;;;6.63;100.00;101907.91;5034113;28;20029;-73
2021/11/12 06:33:47;;;;;;;66.07;33.80;;;;;;;6.60;100.00;101913.00;5029426;28;20022;-73
2021/11/12 06:36:12;;;;;;;60.65;32.45;;;;;;;6.58;100.00;101909.44;5032555;28;20038;-73
2021/11/12 06:38:38;;;;;;;66.65;34.30;;;;;;;6.56;100.00;101916.28;5031353;28;20033;-74
2021/11/12 06:41:09;;;;;;;71.15;35.30;;;;;;;6.54;100.00;101928.41;5032682;28;20116;-74
2021/11/12 06:43:54;;;;;;;69.53;34.72;;;;;;;6.50;100.00;101929.97;5030386;28;20029;-74
2021/11/12 06:52:02;;;;;;;71.28;36.67;;;;;;;6.40;100.00;101915.53;5024566;28;20437;-72
2021/11/12 06:54:28;;;;;;;71.88;37.22;;;;;;;6.39;100.00;101902.38;5032996;28;20033;-70
2021/11/12 06:56:54;;;;;;;71.55;38.17;;;;;;;6.35;100.00;101903.94;5034762;28;20025;-73
2021/11/12 06:59:19;;;;;;;80.35;39.03;;;;;;;6.32;100.00;101898.56;5030870;28;20113;-71
2021/11/12 07:01:47;;;;;;;79.10;37.35;;;;;;;6.30;100.00;101894.97;5021723;28;20024;-74
2021/11/12 07:04:12;;;;;;;75.38;37.97;;;;;;;6.28;100.00;101896.63;5033252;28;20044;-74
2021/11/12 07:06:37;;;;;;;73.43;36.22;;;;;;;6.26;100.00;101898.22;5031865;28;20381;-74
2021/11/12 07:09:06;;;;;;;77.13;36.95;;;;;;;6.22;100.00;101896.28;5033257;28;20377;-74
2021/11/12 07:11:31;;;;;;;83.82;38.30;;;;;;;6.22;100.00;101894.56;5024636;28;20099;-73
2021/11/12 07:13:57;;;;;;;79.80;39.63;;;;;;;6.22;100.00;101899.78;5030173;28;20029;-73
2021/11/12 07:16:22;;;;;;;79.97;39.95;;;;;;;6.23;100.00;101905.94;5034939;28;20021;-74
2021/11/12 07:18:48;;;;;;;85.45;41.90;;;;;;;6.20;100.00;101905.75;5034365;28;20358;-74
2021/11/12 07:21:14;;;;;;;80.93;38.97;;;;;;;6.22;100.00;101896.28;5025660;28;20103;-74
2021/11/12 07:23:40;;;;;;;79.35;38.47;;;;;;;6.21;100.00;101898.00;5025284;28;20373;-74
2021/11/12 07:26:05;;;;;;;74.10;37.88;;;;;;;6.19;100.00;101888.28;5027575;28;20049;-74
2021/11/12 07:28:31;;;;;;;80.35;38.33;;;;;;;6.19;100.00;101888.28;5033727;28;20036;-72
2021/11/12 07:30:56;;;;;;;71.85;37.20;;;;;;;6.17;100.00;101872.53;5034273;28;20029;-73
2021/11/12 07:33:23;;;;;;;77.22;39.08;;;;;;;6.16;100.00;101872.44;5024193;28;20474;-73
2021/11/12 07:35:53;;;;;;;72.28;37.08;;;;;;;6.13;100.00;101867.06;5030438;28;20500;-72
2021/11/12 07:38:23;;;;;;;75.95;38.42;;;;;;;6.11;100.00;101874.81;5033490;28;20037;-72
2021/11/12 07:48:35;;;;;;;83.40;41.15;;;;;;;6.05;100.00;101862.34;5039968;28;20470;-73
2021/11/12 07:51:01;;;;;;;84.47;40.53;;;;;;;6.05;100.00;101854.50;5030979;28;20028;-73
2021/11/12 07:53:26;;;;;;;84.38;39.15;;;;;;;6.05;100.00;101859.75;5041196;28;20116;-73
2021/11/12 07:55:53;;;;;;;84.18;41.25;;;;;;;6.06;100.00;101856.31;5034973;28;20075;-72
2021/11/12 07:58:20;;;;;;;79.18;40.15;;;;;;;6.05;100.00;101857.13;5046383;28;20021;-73
2021/11/12 08:00:45;;;;;;;84.78;41.42;;;;;;;6.02;100.00;101848.22;5043414;28;20024;-74
2021/11/12 08:03:11;;;;;;;84.70;40.92;;;;;;;6.03;100.00;101840.44;5038932;28;20025;-71
2021/11/12 08:05:39;;;;;;;92.75;44.65;;;;;;;6.03;100.00;101836.97;5034397;28;20112;-72
2021/11/12 08:08:08;;;;;;;84.55;43.00;;;;;;;6.05;100.00;101844.06;5030423;28;20427;-71
2021/11/12 08:10:38;;;;;;;89.85;42.17;;;;;;;6.06;100.00;101834.50;5043294;28;20037;-72
2021/11/12 08:13:12;;;;;;;84.15;43.58;;;;;;;6.06;100.00;101830.19;5047511;28;20028;-69
2021/11/12 08:15:46;;;;;;;93.93;44.55;;;;;;;6.10;100.00;101833.81;5037000;28;20117;-72
2021/11/12 08:18:34;;;;;;;89.05;43.00;;;;;;;6.14;100.00;101822.72;5028491;28;20029;-70
2021/11/12 08:21:09;;;;;;;86.35;42.85;;;;;;;6.19;100.00;101825.56;5040305;28;20457;-70
2021/11/12 08:24:14;;;;;;;86.82;41.28;;;;;;;6.23;100.00;101817.94;5041180;28;20033;-71
2021/11/12 08:26:58;;;;;;;83.85;42.50;;;;;;;6.21;100.00;101814.38;5040811;28;20092;-71
2021/11/12 08:29:38;;;;;;;82.45;42.35;;;;;;;6.20;100.00;101812.56;5039112;28;20025;-72
2021/11/12 08:34:48;;;;;;;91.65;44.35;;;;;;;6.30;100.00;101813.03;5027898;28;20033;-71
2021/11/12 08:42:12;;;;;;;88.22;41.90;;;;;;;6.49;100.00;101804.38;5038687;28;20036;-71
2021/11/12 08:44:43;;;;;;;82.20;42.95;;;;;;;6.57;100.00;101803.91;5037820;28;20032;-69
2021/11/12 08:47:17;;;;;;;77.18;40.10;;;;;;;6.65;100.00;101799.06;5026236;28;20108;-71
2021/11/12 08:49:44;;;;;;;78.45;37.42;;;;;;;6.73;100.00;101796.81;5029665;28;20080;-72
2021/11/12 08:52:13;;;;;;;70.93;37.45;;;;;;;6.85;100.00;101788.63;5034797;28;20124;-71
2021/11/12 08:54:39;;;;;;;77.32;39.05;;;;;;;6.98;100.00;101793.63;5037727;28;20432;-72
2021/11/12 08:57:11;;;;;;;79.68;38.78;;;;;;;7.18;100.00;101784.09;5042339;28;20021;-71
2021/11/12 08:59:42;;;;;;;81.05;39.90;;;;;;;7.29;98.05;101779.34;5036071;28;20033;-71
2021/11/12 09:02:09;;;;;;;84.90;40.30;;;;;;;7.29;96.99;101784.56;5040273;28;20009;-70
2021/11/12 09:04:35;;;;;;;78.93;39.75;;;;;;;7.29;96.61;101784.56;5036520;28;20053;-72
2021/11/12 09:07:01;;;;;;;79.15;39.70;;;;;;;7.18;96.90;101784.09;5038976;28;20033;-74
2021/11/12 09:09:27;;;;;;;85.38;40.60;;;;;;;7.03;97.35;101789.50;5042098;28;20392;-76
2021/11/12 09:11:53;;;;;;;80.10;39.25;;;;;;;7.05;97.82;101776.50;5042407;28;20025;-75
2021/11/12 09:14:21;;;;;;;89.03;39.42;;;;;;;7.03;97.97;101771.19;5040020;28;20113;-75
2021/11/12 09:16:48;;;;;;;96.78;42.38;;;;;;;6.95;97.83;101759.47;5040562;28;20408;-75
2021/11/12 09:19:14;;;;;;;84.80;37.72;;;;;;;7.00;97.43;101762.28;5037768;28;20114;-74
2021/11/12 09:21:45;;;;;;;93.72;41.63;;;;;;;6.99;97.92;101766.63;5038943;28;20041;-75
2021/11/12 09:24:12;;;;;;;91.60;39.20;;;;;;;7.04;97.72;101758.97;5034578;28;20473;-76
2021/11/12 09:26:38;;;;;;;87.97;39.63;;;;;;;7.04;97.66;101758.97;5041397;28;20057;-76
2021/11/12 09:29:06;;;;;;;99.07;41.13;;;;;;;7.14;97.84;101757.72;5043982;28;20028;-76
2021/11/12 09:31:32;;;;;;;92.55;42.08;;;;;;;7.14;97.25;101749.84;5051347;28;20025;-76
2021/11/12 09:33:58;;;;;;;88.53;39.40;;;;;;;7.24;96.61;101741.56;5048394;28;20094;-75
2021/11/12 09:36:27;;;;;;;86.30;39.28;;;;;;;7.24;96.40;101736.34;5040697;28;20033;-77
2021/11/12 09:38:53;;;;;;;87.78;39.05;;;;;;;7.33;96.73;101741.09;5044749;28;20025;-75
2021/11/12 09:41:19;;;;;;;79.85;37.63;;;;;;;7.47;96.19;101729.50;5046228;28;20128;-75
2021/11/12 09:43:47;;;;;;;81.90;37.90;;;;;;;7.52;95.28;101738.44;5048411;28;20095;-74
2021/11/12 09:46:13;;;;;;;76.00;35.78;;;;;;;7.70;95.08;101738.34;5032070;28;20060;-75
2021/11/12 09:48:40;;;;;;;72.40;36.25;;;;;;;7.78;94.07;101735.16;5044984;28;20067;-75
2021/11/12 09:51:05;;;;;;;71.70;36.08;;;;;;;8.09;93.54;101735.59;5045400;28;20029;-75
2021/11/12 09:53:31;;;;;;;62.42;32.45;;;;;;;8.25;91.08;101717.88;5038645;28;20033;-74
2021/11/12 09:55:56;;;;;;;66.75;32.90;;;;;;;8.24;90.84;101721.34;5048625;28;20033;-76
2021/11/12 09:58:22;;;;;;;66.30;32.45;;;;;;;8.16;91.22;101709.66;5050687;28;20021;-75
2021/11/12 10:00:55;;;;;;;64.72;32.42;;;;;;;8.03;91.67;101717.03;5044774;28;20033;-75
2021/11/12 10:03:21;;;;;;;57.50;30.42;;;;;;;8.02;91.59;101719.59;5022264;28;20059;-75
2021/11/12 10:05:48;;;;;;;63.42;30.08;;;;;;;8.30;91.02;101716.31;5041861;28;20029;-75
2021/11/12 10:08:38;;;;;;;59.47;30.25;;;;;;;8.77;89.15;101708.56;5040107;28;20385;-75
2021/11/12 10:11:07;;;;;;;50.83;27.77;;;;;;;9.22;87.57;101697.06;5041672;28;20082;-75
2021/11/12 10:13:39;;;;;;;51.03;27.38;;;;;;;9.59;84.61;101687.84;5043116;28;20120;-75
2021/11/12 10:19:00;;;;;;;45.95;25.95;;;;;;;10.18;81.18;101667.00;5042408;28;20111;-75
2021/11/12 10:21:32;;;;;;;48.45;26.20;;;;;;;10.57;80.67;101673.47;5046618;28;20033;-75
2021/11/12 10:24:01;;;;;;;45.42;24.80;;;;;;;10.78;78.86;101663.59;5045599;28;20028;-76
2021/11/12 10:26:32;;;;;;;43.95;25.25;;;;;;;10.70;77.11;101653.66;5029303;28;20077;-76
2021/11/12 10:29:04;;;;;;;43.15;23.42;;;;;;;10.49;78.48;101649.56;5021688;28;20036;-75
2021/11/12 10:31:38;;;;;;;45.15;24.45;;;;;;;10.60;78.18;101658.66;5028372;28;20033;-76
2021/11/12 10:34:09;;;;;;;37.28;23.77;;;;;;;11.04;77.15;101650.25;5022919;28;20440;-76
2021/11/12 10:36:55;;;;;;;39.40;24.83;;;;;;;11.55;75.30;101634.88;5039113;28;20032;-76
2021/11/12 10:39:34;;;;;;;39.60;23.95;;;;;;;12.07;72.34;101623.00;5040914;28;20028;-76
2021/11/12 10:42:03;;;;;;;37.80;22.90;;;;;;;12.39;70.18;101620.19;5048905;28;20128;-75
2021/11/12 10:44:29;;;;;;;40.10;23.98;;;;;;;12.40;69.74;101613.13;5024257;28;20033;-74
2021/11/12 10:46:55;;;;;;;39.20;25.52;;;;;;;12.18;69.90;101615.34;5045023;28;20033;-76
2021/11/12 10:49:24;;;;;;;38.15;23.42;;;;;;;12.16;70.59;101609.13;5046142;28;20025;-76
2021/11/12 10:51:52;;;;;;;42.03;24.88;;;;;;;12.26;70.71;101612.84;5056721;28;20032;-74
2021/11/12 10:54:52;;;;;;;42.58;24.10;;;;;;;12.26;70.29;101599.66;5054184;28;20036;-76
2021/11/12 10:57:22;;;;;;;39.45;23.40;;;;;;;12.10;69.96;101591.41;5028785;28;20084;-75
2021/11/12 11:00:04;;;;;;;40.95;23.83;;;;;;;11.62;71.17;101594.63;5026165;28;20044;-75
2021/11/12 11:02:35;;;;;;;40.58;23.75;;;;;;;11.43;72.57;101582.75;5035868;28;20028;-75
2021/11/12 11:05:08;;;;;;;40.78;23.63;;;;;;;11.11;73.33;101578.44;5045588;28;20466;-76
2021/11/12 11:07:34;;;;;;;48.42;24.42;;;;;;;10.72;75.10;101583.53;5037615;28;20038;-77
2021/11/12 11:10:01;;;;;;;46.33;24.05;;;;;;;10.60;76.37;101578.81;5037848;28;20385;-77
2021/11/12 11:12:37;;;;;;;41.42;23.80;;;;;;;10.62;76.29;101578.00;5046345;28;20128;-76
2021/11/12 11:15:13;;;;;;;42.10;23.02;;;;;;;10.49;76.70;101580.25;5034199;28;20024;-73
2021/11/12 11:17:43;;;;;;;46.95;24.08;;;;;;;10.26;78.08;101573.44;5019875;28;20033;-77
2021/11/12 11:20:11;;;;;;;41.03;24.25;;;;;;;10.29;78.56;101575.25;5037686;28;20029;-75
2021/11/12 11:22:57;;;;;;;38.63;23.50;;;;;;;10.19;78.36;101570.59;5043066;28;20028;-74
2021/11/12 11:25:26;;;;;;;43.08;22.35;;;;;;;10.07;79.35;101560.59;5034313;28;20037;-75
2021/11/12 11:27:54;;;;;;;41.47;22.42;;;;;;;9.87;80.32;101562.59;5037097;28;20030;-73
2021/11/12 11:30:19;;;;;;;44.47;22.95;;;;;;;9.90;80.29;101552.16;5037596;28;20124;-76
2021/11/12 11:32:46;;;;;;;42.38;23.58;;;;;;;9.89;80.82;101545.13;5033178;28;20445;-75
2021/11/12 11:35:13;;;;;;;44.83;22.85;;;;;;;9.79;81.59;101544.88;5035176;28;20045;-77
2021/11/12 11:37:40;;;;;;;43.45;23.38;;;;;;;9.76;81.71;101531.59;5026504;28;20041;-76
2021/11/12 11:40:09;;;;;;;41.28;23.55;;;;;;;9.72;81.92;101536.72;5028936;28;20599;-75
2021/11/12 11:42:37;;;;;;;39.88;21.90;;;;;;;9.68;82.21;101534.84;5038707;28;20025;-76
2021/11/12 11:45:03;;;;;;;40.10;22.60;;;;;;;9.59;82.36;101536.34;5036299;28;20111;-76
2021/11/12 11:47:30;;;;;;;38.70;22.40;;;;;;;9.57;82.67;101524.88;5023487;28;20469;-75
2021/11/12 11:49:56;;;;;;;40.28;23.27;;;;;;;9.52;82.78;101518.63;5040503;28;20079;-75
2021/11/12 11:52:30;;;;;;;42.70;23.13;;;;;;;9.55;83.15;101515.16;5042643;28;20071;-74
2021/11/12 11:54:56;;;;;;;38.60;21.73;;;;;;;9.56;83.30;101515.25;5040272;28;20194;-76
2021/11/12 11:57:24;;;;;;;37.65;21.95;;;;;;;9.61;83.28;101512.75;5038325;28;20064;-76
2021/11/12 12:00:18;;;;;;;38.00;21.73;;;;;;;9.48;83.52;101513.19;5035624;28;20033;-76
2021/11/12 12:02:43;;;;;;;40.15;21.38;;;;;;;9.42;83.23;101501.66;5035244;28;20044;-76
2021/11/12 12:05:09;;;;;;;42.38;22.02;;;;;;;9.35;83.35;101514.56;5032444;28;20033;-75
2021/11/12 12:07:53;;;;;;;35.88;20.77;;;;;;;9.33;83.93;101506.59;5035554;28;20048;-75
2021/11/12 12:10:21;;;;;;;39.63;22.63;;;;;;;9.27;83.88;101502.03;5034985;28;20458;-74
2021/11/12 12:12:49;;;;;;;37.97;22.88;;;;;;;9.26;84.46;101504.63;5032618;28;20029;-74
2021/11/12 12:15:16;;;;;;;34.75;21.80;;;;;;;9.23;84.69;101499.28;5032768;28;20052;-74
2021/11/12 12:17:44;;;;;;;33.83;20.98;;;;;;;9.21;84.68;101496.63;5033664;28;20108;-73
2021/11/12 12:20:20;;;;;;;41.17;21.90;;;;;;;9.20;84.67;101483.44;5029863;28;20599;-75
2021/11/12 13:25:31;;;;;;;29.02;18.85;;;;;;;10.10;81.25;101366.97;5025349;28;20123;-76
2021/11/12 13:28:11;;;;;;;33.30;19.65;;;;;;;10.09;81.59;101357.31;5049805;28;20212;-77
2021/11/12 13:30:39;;;;;;;30.55;18.45;;;;;;;10.04;81.50;101345.78;5038953;28;20037;-77
2021/11/12 13:33:05;;;;;;;29.55;18.58;;;;;;;10.03;81.57;101354.50;5048631;28;20037;-77
2021/11/12 13:35:36;;;;;;;32.75;17.70;;;;;;;10.05;81.42;101349.28;5039789;28;20493;-75
2021/11/12 13:38:04;;;;;;;35.40;18.58;;;;;;;10.05;80.94;101352.81;5046481;28;20072;-77
2021/11/12 13:40:30;;;;;;;32.55;18.05;;;;;;;10.09;80.89;101338.91;5039865;28;20025;-72
2021/11/12 13:42:56;;;;;;;27.92;18.33;;;;;;;10.13;80.52;101340.75;5040014;28;20392;-74
2021/11/12 13:45:24;;;;;;;29.30;18.27;;;;;;;10.14;80.76;101333.75;5035962;28;20044;-73
2021/11/12 13:48:13;;;;;;;29.27;17.42;;;;;;;10.16;80.82;101328.53;5033459;28;20029;-76
2021/11/12 13:50:50;;;;;;;29.52;18.15;;;;;;;10.22;80.67;101334.84;5033324;28;20041;-76
2021/11/12 13:53:16;;;;;;;30.73;17.40;;;;;;;10.29;80.18;101330.63;5035607;28;20063;-77
2021/11/12 13:55:42;;;;;;;25.23;16.55;;;;;;;10.30;79.30;101316.63;5045281;28;20546;-77
2021/11/12 13:58:08;;;;;;;26.90;16.38;;;;;;;10.28;78.92;101313.06;5034590;28;20026;-77
2021/11/12 14:00:35;;;;;;;27.25;16.35;;;;;;;10.32;79.18;101316.66;5033786;28;20048;-77
2021/11/12 14:03:07;;;;;;;26.00;15.85;;;;;;;10.36;79.29;101305.41;5041550;28;20025;-78
2021/11/12 14:05:37;;;;;;;28.52;16.02;;;;;;;10.38;78.66;101303.72;5043108;28;20474;-77
2021/11/12 14:08:10;;;;;;;26.70;16.30;;;;;;;10.34;78.86;101302.72;5033418;28;20017;-77
2021/11/12 14:10:45;;;;;;;25.50;16.03;;;;;;;10.34;78.95;101307.97;5036200;28;20025;-76
2021/11/12 14:13:14;;;;;;;22.42;14.65;;;;;;;10.32;78.52;101314.91;5033524;28;20542;-78
2021/11/12 14:15:44;;;;;;;28.20;15.68;;;;;;;10.31;79.16;101313.16;5032218;28;20382;-78
2021/11/12 14:24:24;;;;;;;28.83;14.52;;;;;;;10.27;79.20;101300.78;5043510;28;20311;-78
2021/11/12 14:26:59;;;;;;;32.35;16.25;;;;;;;10.23;79.69;101286.66;5039117;28;20076;-78
2021/11/12 14:32:58;;;;;;;30.40;15.82;;;;;;;10.24;79.55;101284.91;5042559;28;20046;-77
2021/11/12 14:40:46;;;;;;;25.58;15.57;;;;;;;10.25;80.01;101282.31;5037013;28;20482;-80
2021/11/12 14:46:09;;;;;;;;;;;;;;;10.21;80.17;101284.84;5039476;28;20119;-78
2021/11/12 14:48:50;;;;;;;35.03;16.38;;;;;;;10.16;81.03;101282.09;5035642;28;19948;-79
2021/11/12 14:51:20;;;;;;;29.70;16.05;;;;;;;10.13;80.66;101275.03;5037612;28;20032;-81
2021/11/12 14:56:26;;;;;;;26.17;15.30;;;;;;;10.08;81.28;101288.91;5032925;28;20554;-78
2021/11/12 14:58:56;;;;;;;27.02;14.20;;;;;;;10.07;81.21;101281.88;5047271;28;20441;-78
2021/11/12 15:01:26;;;;;;;29.25;15.00;;;;;;;10.05;81.52;101283.53;5035472;28;20025;-78
2021/11/12 15:03:53;;;;;;;26.20;14.30;;;;;;;10.03;81.75;101280.88;5030876;28;20033;-79
2021/11/12 15:06:22;;;;;;;24.25;14.23;;;;;;;10.02;81.78;101270.34;5032776;28;20033;-81
2021/11/12 15:08:55;;;;;;;32.05;14.50;;;;;;;10.02;81.42;101260.69;5033125;28;20041;-80
2021/11/12 15:11:25;;;;;;;24.00;14.18;;;;;;;9.99;82.06;101267.63;5032358;28;20029;-80
2021/11/12 15:13:53;;;;;;;23.98;13.60;;;;;;;10.00;81.85;101257.16;5049076;28;20034;-78
2021/11/12 15:18:44;;;;;;;25.80;13.95;;;;;;;9.99;82.12;101250.09;5042742;28;20026;-80
2021/11/12 15:21:21;;;;;;;27.23;13.07;;;;;;;9.99;82.44;101251.84;5050110;28;20106;-80
2021/11/12 15:34:08;;;;;;;22.48;12.70;;;;;;;10.15;81.51;101253.09;5039467;28;20041;-79
2021/11/12 15:36:43;;;;;;;20.90;11.52;;;;;;;10.17;81.17;101243.53;5048699;28;20053;-80
2021/11/12 15:39:11;;;;;;;22.50;11.50;;;;;;;10.19;80.82;101237.47;5050222;28;20040;-80
2021/11/12 15:44:41;;;;;;;17.67;10.20;;;;;;;10.23;80.22;101231.44;5065582;28;20063;-83
2021/11/12 15:47:22;;;;;;;20.08;9.95;;;;;;;10.27;80.02;101229.78;5041736;28;20092;-80
2021/11/12 15:49:47;;;;;;;22.20;9.75;;;;;;;10.33;78.35;101229.91;5034051;28;20046;-82
2021/11/12 15:52:22;;;;;;;14.95;9.25;;;;;;;10.37;78.07;101215.13;5050343;28;20024;-79
2021/11/12 15:54:57;;;;;;;16.60;9.93;;;;;;;10.37;78.00;101208.09;5045924;28;20040;-81
2021/11/12 16:07:46;;;;;;;15.23;10.15;;;;;;;10.52;76.50;101209.31;5046699;28;20033;-82
2021/11/12 16:17:43;;;;;;;17.42;8.50;;;;;;;10.51;77.14;101204.91;5043177;28;20045;-81
2021/11/12 16:23:02;;;;;;;14.02;8.52;;;;;;;10.44;77.54;101204.78;5054962;28;20405;-80
2021/11/12 16:25:28;;;;;;;15.40;8.38;;;;;;;10.41;77.69;101204.69;5040568;28;20049;-73
2021/11/12 16:27:59;;;;;;;11.07;8.55;;;;;;;10.38;78.31;101203.75;5042266;28;20025;-79
2021/11/12 16:30:29;;;;;;;15.30;8.82;;;;;;;10.36;78.60;101214.22;5041933;28;20044;-81
2021/11/12 16:32:56;;;;;;;12.75;8.63;;;;;;;10.36;78.74;101200.19;5033341;28;20033;-79
2021/11/12 16:35:24;;;;;;;17.27;8.88;;;;;;;10.36;78.79;101195.78;5036433;28;20113;-77
2021/11/12 16:37:53;;;;;;;13.88;8.95;;;;;;;10.32;79.46;101204.44;5035040;28;20117;-81
2021/11/12 16:40:27;;;;;;;15.90;8.43;;;;;;;10.32;79.60;101209.69;5034874;28;20079;-80